createdAt,value
2018-04-18T00:01:15.337Z,13.80
2018-04-18T00:03:42.289Z,13.70
2018-04-18T00:06:08.575Z,13.60
2018-04-18T00:08:36.380Z,13.60
2018-04-18T00:11:03.766Z,13.50
2018-04-18T00:13:30.631Z,13.50
2018-04-18T00:15:56.678Z,13.60
2018-04-18T00:18:22.760Z,13.50
2018-04-18T00:20:49.005Z,13.50
2018-04-18T00:35:03.349Z,13.20
2018-04-18T00:37:29.413Z,13.20
2018-04-18T00:39:55.728Z,13.20
2018-04-18T00:42:22.323Z,13.20
2018-04-18T00:44:48.564Z,13.10
2018-04-18T00:47:14.890Z,13.10
2018-04-18T00:49:41.186Z,13.10
2018-04-18T00:52:08.153Z,13.10
2018-04-18T00:54:34.419Z,13.00
2018-04-18T00:57:00.672Z,13.10
2018-04-18T00:59:26.999Z,13.10
2018-04-18T01:01:53.216Z,13.20
2018-04-18T01:04:19.427Z,13.20
2018-04-18T01:06:45.651Z,13.20
2018-04-18T01:09:11.884Z,13.20
2018-04-18T01:11:38.139Z,13.20
2018-04-18T01:14:04.396Z,13.20
2018-04-18T01:16:30.679Z,13.20
2018-04-18T01:18:56.908Z,13.10
2018-04-18T01:21:23.137Z,13.00
2018-04-18T01:23:50.108Z,13.10
2018-04-18T01:26:16.336Z,13.10
2018-04-18T01:28:43.320Z,13.00
2018-04-18T01:31:09.564Z,13.00
2018-04-18T01:33:36.624Z,13.00
2018-04-18T01:36:02.873Z,13.00
2018-04-18T01:38:29.096Z,13.00
2018-04-18T01:40:55.818Z,13.00
2018-04-18T01:43:22.195Z,12.90
2018-04-18T01:45:48.562Z,12.80
2018-04-18T01:48:15.588Z,12.80
2018-04-18T01:50:41.828Z,12.80
2018-04-18T01:53:08.921Z,12.80
2018-04-18T01:55:34.969Z,12.70
2018-04-18T01:58:01.353Z,12.70
2018-04-18T02:00:27.602Z,12.70
2018-04-18T02:02:54.576Z,12.70
2018-04-18T02:05:20.628Z,12.70
2018-04-18T02:07:47.461Z,12.70
2018-04-18T02:10:13.508Z,12.70
2018-04-18T02:12:39.551Z,12.60
2018-04-18T02:15:05.815Z,12.50
2018-04-18T02:17:32.844Z,12.60
2018-04-18T02:19:58.897Z,12.50
2018-04-18T02:22:24.960Z,12.50
2018-04-18T02:24:51.238Z,12.60
2018-04-18T02:27:18.272Z,12.50
2018-04-18T02:29:45.060Z,12.50
2018-04-18T02:32:11.225Z,12.50
2018-04-18T02:34:37.287Z,12.40
2018-04-18T02:37:03.914Z,12.40
2018-04-18T02:39:29.968Z,12.40
2018-04-18T02:41:56.212Z,12.40
2018-04-18T02:44:22.412Z,12.30
2018-04-18T02:46:48.615Z,12.30
2018-04-18T02:49:14.899Z,12.30
2018-04-18T02:51:41.842Z,12.30
2018-04-18T02:54:08.063Z,12.30
2018-04-18T02:56:34.269Z,12.30
2018-04-18T02:59:00.709Z,12.30
2018-04-18T03:01:26.931Z,12.30
2018-04-18T03:03:53.147Z,12.40
2018-04-18T03:06:20.814Z,12.30
2018-04-18T03:08:47.048Z,12.20
2018-04-18T03:11:13.287Z,12.20
2018-04-18T03:13:40.255Z,12.10
2018-04-18T03:16:07.208Z,12.00
2018-04-18T03:18:34.160Z,12.00
2018-04-18T03:21:00.351Z,12.00
2018-04-18T03:23:26.685Z,12.00
2018-04-18T03:25:52.883Z,12.10
2018-04-18T03:28:19.103Z,12.10
2018-04-18T03:30:45.309Z,12.00
2018-04-18T03:33:11.653Z,12.00
2018-04-18T03:35:37.881Z,12.00
2018-04-18T03:38:04.135Z,12.00
2018-04-18T03:40:30.361Z,11.90
2018-04-18T03:42:56.672Z,11.90
2018-04-18T03:45:23.655Z,11.90
2018-04-18T03:47:49.885Z,11.90
2018-04-18T03:50:16.123Z,12.00
2018-04-18T03:52:42.365Z,11.90
2018-04-18T03:55:08.635Z,11.90
2018-04-18T03:57:34.860Z,11.90
2018-04-18T04:00:01.113Z,11.90
2018-04-18T04:02:27.454Z,11.90
2018-04-18T04:04:54.500Z,11.80
2018-04-18T04:07:20.938Z,11.80
2018-04-18T04:09:47.899Z,11.70
2018-04-18T04:12:14.132Z,11.70
2018-04-18T04:14:41.090Z,11.70
2018-04-18T04:17:20.260Z,11.70
2018-04-18T04:22:57.151Z,11.60
2018-04-18T04:25:23.203Z,11.60
2018-04-18T04:27:49.272Z,11.60
2018-04-18T04:30:15.312Z,11.60
2018-04-18T04:32:41.488Z,11.70
2018-04-18T04:35:07.615Z,11.70
2018-04-18T04:37:33.659Z,11.70
2018-04-18T04:39:59.802Z,11.60
2018-04-18T04:42:25.872Z,11.70
2018-04-18T04:44:51.932Z,11.70
2018-04-18T04:47:18.074Z,11.70
2018-04-18T04:49:44.879Z,11.60
2018-04-18T04:52:10.940Z,11.60
2018-04-18T04:54:36.982Z,11.60
2018-04-18T04:57:03.028Z,11.70
2018-04-18T04:59:29.059Z,11.70
2018-04-18T05:01:55.136Z,11.80
2018-04-18T05:04:21.179Z,11.80
2018-04-18T05:06:47.314Z,11.80
2018-04-18T05:09:13.353Z,11.90
2018-04-18T05:11:39.405Z,12.00
2018-04-18T05:14:05.516Z,12.00
2018-04-18T05:16:32.813Z,12.10
2018-04-18T05:18:58.840Z,12.10
2018-04-18T05:21:25.910Z,12.20
2018-04-18T05:23:51.952Z,12.20
2018-04-18T05:26:18.012Z,12.30
2018-04-18T05:28:44.075Z,12.40
2018-04-18T05:31:10.926Z,12.50
2018-04-18T05:33:37.039Z,12.50
2018-04-18T05:36:03.064Z,12.60
2018-04-18T05:38:29.264Z,12.70
2018-04-18T05:40:55.316Z,12.90
2018-04-18T05:43:21.341Z,13.10
2018-04-18T05:45:47.560Z,13.40
2018-04-18T05:48:14.335Z,14.20
2018-04-18T05:50:40.704Z,14.20
2018-04-18T05:53:06.819Z,14.90
2018-04-18T05:55:32.856Z,15.70
2018-04-18T05:57:58.884Z,16.50
2018-04-18T06:00:24.944Z,17.20
2018-04-18T06:02:50.975Z,18.00
2018-04-18T06:05:17.021Z,18.50
2018-04-18T06:07:43.416Z,18.90
2018-04-18T06:10:10.208Z,19.30
2018-04-18T06:12:37.181Z,19.50
2018-04-18T06:15:03.210Z,19.50
2018-04-18T06:17:29.292Z,19.60
2018-04-18T06:19:55.469Z,19.60
2018-04-18T06:22:21.506Z,19.60
2018-04-18T06:24:47.519Z,19.50
2018-04-18T06:27:14.318Z,19.10
2018-04-18T06:29:40.314Z,19.10
2018-04-18T06:32:06.411Z,19.10
2018-04-18T06:34:32.523Z,19.10
2018-04-18T06:36:58.572Z,19.10
2018-04-18T06:39:24.632Z,19.10
2018-04-18T06:41:50.702Z,19.20
2018-04-18T06:44:16.749Z,19.20
2018-04-18T06:46:42.793Z,19.20
2018-04-18T06:49:08.831Z,19.30
2018-04-18T06:51:34.935Z,19.30
2018-04-18T06:54:01.715Z,19.20
2018-04-18T06:56:27.765Z,19.20
2018-04-18T06:58:53.819Z,19.10
2018-04-18T07:01:19.989Z,19.00
2018-04-18T07:03:46.048Z,19.00
2018-04-18T07:06:12.103Z,19.10
2018-04-18T07:08:38.171Z,19.20
2018-04-18T07:11:04.239Z,19.10
2018-04-18T07:13:31.163Z,19.40
2018-04-18T07:15:57.328Z,19.40
2018-04-18T07:18:24.214Z,19.90
2018-04-18T07:20:51.485Z,20.10
2018-04-18T07:23:18.602Z,20.40
2018-04-18T07:25:50.366Z,20.60
2018-04-18T07:28:16.408Z,20.70
2018-04-18T07:30:42.497Z,20.80
2018-04-18T07:33:08.536Z,21.00
2018-04-18T07:35:34.580Z,20.80
2018-04-18T07:38:00.681Z,20.80
2018-04-18T07:40:27.693Z,20.90
2018-04-18T07:42:54.487Z,20.80
2018-04-18T07:45:22.348Z,20.80
2018-04-18T07:47:48.396Z,20.80
2018-04-18T07:50:15.175Z,20.70
2018-04-18T07:52:41.241Z,20.70
2018-04-18T07:55:07.301Z,20.80
2018-04-18T07:57:33.377Z,20.80
2018-04-18T08:00:00.159Z,21.00
2018-04-18T08:02:26.196Z,21.00
2018-04-18T08:04:52.241Z,21.20
2018-04-18T08:07:18.275Z,21.20
2018-04-18T08:09:44.323Z,21.20
2018-04-18T08:12:10.404Z,21.30
2018-04-18T08:14:37.355Z,21.60
2018-04-18T08:17:04.149Z,21.70
2018-04-18T08:19:30.187Z,21.70
2018-04-18T08:21:56.246Z,21.80
2018-04-18T08:24:22.306Z,22.10
2018-04-18T08:26:48.327Z,22.10
2018-04-18T08:29:14.364Z,22.20
2018-04-18T08:31:40.399Z,22.30
2018-04-18T08:34:07.353Z,22.70
2018-04-18T08:36:33.413Z,22.60
2018-04-18T08:38:59.455Z,22.90
2018-04-18T08:41:28.593Z,23.10
2018-04-18T08:43:54.640Z,23.10
2018-04-18T08:46:20.691Z,23.00
2018-04-18T08:48:46.756Z,22.90
2018-04-18T08:51:12.824Z,22.80
2018-04-18T08:53:39.604Z,22.70
2018-04-18T08:56:05.663Z,22.60
2018-04-18T08:58:31.923Z,22.50
2018-04-18T09:01:00.103Z,22.40
2018-04-18T09:03:26.135Z,22.40
2018-04-18T09:05:52.185Z,22.40
2018-04-18T09:08:18.229Z,22.50
2018-04-18T09:10:44.272Z,22.60
2018-04-18T09:13:10.322Z,22.70
2018-04-18T09:15:36.640Z,22.70
2018-04-18T09:18:02.849Z,22.80
2018-04-18T09:20:30.793Z,23.10
2018-04-18T09:22:57.610Z,23.60
2018-04-18T09:25:23.665Z,23.60
2018-04-18T09:27:50.480Z,24.10
2018-04-18T09:30:16.534Z,24.10
2018-04-18T09:32:42.748Z,24.40
2018-04-18T09:35:08.817Z,24.60
2018-04-18T09:37:34.856Z,24.90
2018-04-18T09:40:04.850Z,25.20
2018-04-18T09:42:30.897Z,24.80
2018-04-18T09:44:56.927Z,24.90
2018-04-18T09:47:22.955Z,24.80
2018-04-18T09:49:49.007Z,25.10
2018-04-18T09:52:15.032Z,25.00
2018-04-18T09:54:41.064Z,25.30
2018-04-18T09:57:07.828Z,25.90
2018-04-18T09:59:36.392Z,25.90
2018-04-18T10:02:08.733Z,26.20
2018-04-18T10:04:34.774Z,26.10
2018-04-18T10:07:00.791Z,26.10
2018-04-18T10:09:26.819Z,25.70
2018-04-18T10:11:52.883Z,25.90
2018-04-18T10:14:18.898Z,26.20
2018-04-18T10:16:50.272Z,26.40
2018-04-18T10:19:16.279Z,26.30
2018-04-18T10:21:42.340Z,25.80
2018-04-18T10:24:08.361Z,25.70
2018-04-18T10:26:35.116Z,25.20
2018-04-18T10:29:01.900Z,25.50
2018-04-18T10:31:27.929Z,25.40
2018-04-18T10:33:53.955Z,25.70
2018-04-18T10:36:22.471Z,26.00
2018-04-18T10:38:48.491Z,26.30
2018-04-18T10:41:14.505Z,26.60
2018-04-18T10:43:40.556Z,26.50
2018-04-18T10:46:07.339Z,26.70
2018-04-18T10:48:33.370Z,26.70
2018-04-18T10:50:59.396Z,26.90
2018-04-18T10:53:25.418Z,26.80
2018-04-18T10:55:52.197Z,27.00
2018-04-18T10:58:18.220Z,27.00
2018-04-18T11:00:44.260Z,27.30
2018-04-18T11:03:10.296Z,27.40
2018-04-18T11:05:36.343Z,27.50
2018-04-18T11:08:02.505Z,27.30
2018-04-18T11:10:28.523Z,27.20
2018-04-18T11:12:54.549Z,27.20
2018-04-18T11:15:21.504Z,27.30
2018-04-18T11:17:50.480Z,27.30
2018-04-18T11:20:16.501Z,27.50
2018-04-18T11:22:42.513Z,27.60
2018-04-18T11:25:08.543Z,27.70
2018-04-18T11:27:34.633Z,27.60
2018-04-18T11:30:00.664Z,27.60
2018-04-18T11:32:26.688Z,27.60
2018-04-18T11:34:52.712Z,27.80
2018-04-18T11:37:18.848Z,28.00
2018-04-18T11:39:47.523Z,28.30
2018-04-18T11:42:13.484Z,28.10
2018-04-18T11:44:39.499Z,28.40
2018-04-18T11:47:05.528Z,28.50
2018-04-18T11:49:31.644Z,28.40
2018-04-18T11:51:58.474Z,28.40
2018-04-18T11:54:24.456Z,28.40
2018-04-18T11:56:50.495Z,28.30
2018-04-18T11:59:19.336Z,28.30
2018-04-18T12:01:45.380Z,28.20
2018-04-18T12:04:12.193Z,28.10
2018-04-18T12:06:38.288Z,28.10
2018-04-18T12:09:04.313Z,28.10
2018-04-18T12:11:30.431Z,28.20
2018-04-18T12:13:56.456Z,28.30
2018-04-18T12:16:27.308Z,28.40
2018-04-18T12:18:53.363Z,28.40
2018-04-18T12:21:19.403Z,28.00
2018-04-18T12:23:45.446Z,28.10
2018-04-18T12:26:11.504Z,28.20
2018-04-18T12:28:37.540Z,28.30
2018-04-18T12:31:03.567Z,28.40
2018-04-18T12:33:29.604Z,28.70
2018-04-18T12:35:58.703Z,28.40
2018-04-18T12:38:24.729Z,28.30
2018-04-18T12:40:50.760Z,28.30
2018-04-18T12:43:16.788Z,28.50
2018-04-18T12:45:42.816Z,28.60
2018-04-18T12:48:08.839Z,28.80
2018-04-18T12:50:35.623Z,28.70
2018-04-18T12:53:03.429Z,28.70
2018-04-18T12:55:30.836Z,28.30
2018-04-18T12:57:57.630Z,28.40
2018-04-18T13:00:23.667Z,28.40
2018-04-18T13:02:49.700Z,28.50
2018-04-18T13:05:15.735Z,28.60
2018-04-18T13:07:41.779Z,28.90
2018-04-18T13:10:07.818Z,29.30
2018-04-18T13:12:34.757Z,29.80
2018-04-18T13:15:00.968Z,29.80
2018-04-18T13:17:27.173Z,29.80
2018-04-18T13:19:53.391Z,29.40
2018-04-18T13:22:20.320Z,29.20
2018-04-18T13:24:46.548Z,29.10
2018-04-18T13:27:12.735Z,29.20
2018-04-18T13:29:39.680Z,29.50
2018-04-18T13:32:06.830Z,29.70
2018-04-18T13:34:33.073Z,29.60
2018-04-18T13:36:59.434Z,29.90
2018-04-18T13:39:26.394Z,29.80
2018-04-18T13:41:52.663Z,29.80
2018-04-18T13:44:18.903Z,29.70
2018-04-18T13:46:45.140Z,29.70
2018-04-18T13:49:11.344Z,29.90
2018-04-18T13:51:38.323Z,29.60
2018-04-18T13:54:04.539Z,29.60
2018-04-18T13:56:31.521Z,29.40
2018-04-18T13:58:58.487Z,29.40
2018-04-18T14:01:24.769Z,29.40
2018-04-18T14:03:50.976Z,29.60
2018-04-18T14:06:17.248Z,29.80
2018-04-18T14:08:43.480Z,30.20
2018-04-18T14:11:09.696Z,30.50
2018-04-18T14:13:35.924Z,30.50
2018-04-18T14:16:02.178Z,30.60
2018-04-18T14:18:28.434Z,30.80
2018-04-18T14:20:55.453Z,30.60
2018-04-18T14:23:21.665Z,30.60
2018-04-18T14:25:48.636Z,30.20
2018-04-18T14:28:16.349Z,30.20
2018-04-18T14:30:45.658Z,30.20
2018-04-18T14:33:11.904Z,30.00
2018-04-18T14:35:38.127Z,29.90
2018-04-18T14:38:04.394Z,29.70
2018-04-18T14:40:32.012Z,29.80
2018-04-18T14:42:58.994Z,29.80
2018-04-18T14:45:25.938Z,29.80
2018-04-18T14:47:52.149Z,29.80
2018-04-18T14:50:18.363Z,29.70
2018-04-18T14:52:44.566Z,29.80
2018-04-18T14:55:11.528Z,29.80
2018-04-18T14:57:37.773Z,29.80
2018-04-18T15:03:14.315Z,29.70
2018-04-18T15:05:41.291Z,29.40
2018-04-18T15:08:07.611Z,29.50
2018-04-18T15:10:34.575Z,29.70
2018-04-18T15:13:01.564Z,29.80
2018-04-18T15:15:27.800Z,29.80
2018-04-18T15:17:54.206Z,29.90
2018-04-18T15:20:20.512Z,30.10
2018-04-18T15:22:46.793Z,30.10
2018-04-18T15:25:12.980Z,30.10
2018-04-18T15:27:39.221Z,29.80
2018-04-18T15:30:05.484Z,29.50
2018-04-18T15:32:31.810Z,29.20
2018-04-18T15:34:58.164Z,29.30
2018-04-18T15:37:25.160Z,29.20
2018-04-18T15:39:51.428Z,29.10
2018-04-18T15:42:18.475Z,29.10
2018-04-18T15:44:44.754Z,29.10
2018-04-18T15:47:11.751Z,28.20
2018-04-18T15:49:37.975Z,28.20
2018-04-18T15:52:04.216Z,28.00
2018-04-18T15:54:31.203Z,27.50
2018-04-18T15:56:57.451Z,27.50
2018-04-18T15:59:23.656Z,27.20
2018-04-18T16:01:50.608Z,26.80
2018-04-18T16:04:16.835Z,26.80
2018-04-18T16:06:43.075Z,26.60
2018-04-18T16:09:09.312Z,26.50
2018-04-18T16:11:35.521Z,26.60
2018-04-18T16:14:01.748Z,26.60
2018-04-18T16:16:27.991Z,26.40
2018-04-18T16:18:54.219Z,26.40
2018-04-18T16:21:20.428Z,26.40
2018-04-18T16:23:46.668Z,26.50
2018-04-18T16:26:12.980Z,26.50
2018-04-18T16:28:39.254Z,26.60
2018-04-18T16:31:05.499Z,26.60
2018-04-18T16:33:31.732Z,26.40
2018-04-18T16:35:57.964Z,26.30
2018-04-18T16:38:24.195Z,26.40
2018-04-18T16:40:50.424Z,26.40
2018-04-18T16:43:16.773Z,26.30
2018-04-18T16:45:42.981Z,26.20
2018-04-18T16:48:09.236Z,26.20
2018-04-18T16:50:36.230Z,25.90
2018-04-18T16:53:02.465Z,25.90
2018-04-18T16:55:28.705Z,26.00
2018-04-18T16:57:54.954Z,25.80
2018-04-18T17:00:21.931Z,25.50
2018-04-18T17:02:48.121Z,25.50
2018-04-18T17:05:14.352Z,25.50
2018-04-18T17:07:41.347Z,25.20
2018-04-18T17:10:07.593Z,25.20
2018-04-18T17:12:33.820Z,25.30
2018-04-18T17:15:00.068Z,25.30
2018-04-18T17:17:26.311Z,25.10
2018-04-18T17:19:52.536Z,24.90
2018-04-18T17:22:18.772Z,25.00
2018-04-18T17:24:44.975Z,25.10
2018-04-18T17:27:11.191Z,25.20
2018-04-18T17:29:37.425Z,25.20
2018-04-18T17:32:03.632Z,25.20
2018-04-18T17:34:29.950Z,25.20
2018-04-18T17:36:56.149Z,25.20
2018-04-18T17:39:23.142Z,25.20
2018-04-18T17:41:50.084Z,25.00
2018-04-18T17:44:17.047Z,24.90
2018-04-18T17:46:43.364Z,24.90
2018-04-18T17:49:10.312Z,24.70
2018-04-18T17:51:36.531Z,24.70
2018-04-18T17:54:02.767Z,24.70
2018-04-18T17:56:28.999Z,24.70
2018-04-18T17:58:55.223Z,24.70
2018-04-18T18:01:21.510Z,24.50
2018-04-18T18:03:47.701Z,24.40
2018-04-18T18:06:13.915Z,24.30
2018-04-18T18:08:40.168Z,24.20
2018-04-18T18:11:06.432Z,24.20
2018-04-18T18:13:32.743Z,24.20
2018-04-18T18:15:59.741Z,24.20
2018-04-18T18:18:26.018Z,24.20
2018-04-18T18:20:52.246Z,24.10
2018-04-18T18:23:18.458Z,24.10
2018-04-18T18:25:44.693Z,24.10
2018-04-18T18:28:10.943Z,24.00
2018-04-18T18:30:37.175Z,24.00
2018-04-18T18:33:03.394Z,23.70
2018-04-18T18:35:29.624Z,23.50
2018-04-18T18:37:55.876Z,23.50
2018-04-18T18:40:22.856Z,23.50
2018-04-18T18:42:49.115Z,23.50
2018-04-18T18:45:15.341Z,23.40
2018-04-18T18:47:41.594Z,23.30
2018-04-18T18:50:07.813Z,23.30
2018-04-18T18:52:34.046Z,23.10
2018-04-18T18:55:00.975Z,22.90
2018-04-18T18:57:27.196Z,22.80
2018-04-18T18:59:53.487Z,22.70
2018-04-18T19:02:19.849Z,22.60
2018-04-18T19:04:46.160Z,22.40
2018-04-18T19:07:12.413Z,22.30
2018-04-18T19:09:39.504Z,22.00
2018-04-18T19:12:05.721Z,22.00
2018-04-18T19:14:32.032Z,21.90
2018-04-18T19:16:59.313Z,21.80
2018-04-18T19:19:25.548Z,21.70
2018-04-18T19:21:51.781Z,21.60
2018-04-18T19:24:18.089Z,21.50
2018-04-18T19:26:44.351Z,21.50
2018-04-18T19:29:11.352Z,21.30
2018-04-18T19:31:37.583Z,21.20
2018-04-18T19:34:03.842Z,21.10
2018-04-18T19:36:30.061Z,21.00
2018-04-18T19:38:57.087Z,20.80
2018-04-18T19:41:23.362Z,20.80
2018-04-18T19:43:50.435Z,20.60
2018-04-18T19:46:16.727Z,20.50
2018-04-18T19:48:42.932Z,20.50
2018-04-18T19:51:09.195Z,20.50
2018-04-18T19:53:36.292Z,20.30
2018-04-18T19:56:03.309Z,20.20
2018-04-18T19:58:29.547Z,20.20
2018-04-18T20:00:56.542Z,20.10
2018-04-18T20:03:22.796Z,20.10
2018-04-18T20:05:49.796Z,19.90
2018-04-18T20:08:16.125Z,19.90
2018-04-18T20:10:42.491Z,19.90
2018-04-18T20:13:08.743Z,19.70
2018-04-18T20:15:35.016Z,19.70
2018-04-18T20:18:01.290Z,19.60
2018-04-18T20:20:27.560Z,19.50
2018-04-18T20:22:53.731Z,19.50
2018-04-18T20:25:21.719Z,19.30
2018-04-18T20:27:47.943Z,19.20
2018-04-18T20:30:14.177Z,19.20
2018-04-18T20:32:40.387Z,19.20
2018-04-18T20:35:06.624Z,19.10
2018-04-18T20:37:32.847Z,19.10
2018-04-18T20:39:59.260Z,19.00
2018-04-18T20:42:25.500Z,18.90
2018-04-18T20:44:51.712Z,18.90
2018-04-18T20:47:17.912Z,18.80
2018-04-18T20:49:44.148Z,18.70
2018-04-18T20:52:10.375Z,18.70
2018-04-18T20:54:36.600Z,18.60
2018-04-18T20:57:02.835Z,18.60
2018-04-18T20:59:29.111Z,18.50
2018-04-18T21:01:55.327Z,18.50
2018-04-18T21:04:21.571Z,18.40
2018-04-18T21:06:48.587Z,18.30
2018-04-18T21:09:14.815Z,18.30
2018-04-18T21:11:41.056Z,18.20
2018-04-18T21:14:07.345Z,18.20
2018-04-18T21:16:33.608Z,18.10
2018-04-18T21:18:59.866Z,18.00
2018-04-18T21:21:26.067Z,18.00
2018-04-18T21:23:52.317Z,17.90
2018-04-18T21:26:18.557Z,17.90
2018-04-18T21:28:44.810Z,17.80
2018-04-18T21:31:11.861Z,17.70
2018-04-18T21:33:38.845Z,17.60
2018-04-18T21:36:05.072Z,17.60
2018-04-18T21:38:31.337Z,17.60
2018-04-18T21:40:57.548Z,17.60
2018-04-18T21:43:23.795Z,17.60
2018-04-18T21:45:50.133Z,17.40
2018-04-18T21:48:16.460Z,17.50
2018-04-18T21:50:42.789Z,17.50
2018-04-18T21:53:09.020Z,17.30
2018-04-18T21:55:35.235Z,17.30
2018-04-18T21:58:01.480Z,17.30
2018-04-18T22:00:27.729Z,17.20
2018-04-18T22:02:54.054Z,17.10
2018-04-18T22:05:20.288Z,17.10
2018-04-18T22:07:46.584Z,17.00
2018-04-18T22:10:12.819Z,17.00
2018-04-18T22:12:39.819Z,16.90
2018-04-18T22:15:06.755Z,16.80
2018-04-18T22:17:34.079Z,16.80
2018-04-18T22:20:02.372Z,16.70
2018-04-18T22:22:29.415Z,16.60
2018-04-18T22:24:55.632Z,16.60
2018-04-18T22:27:22.617Z,16.50
2018-04-18T22:29:48.875Z,16.50
2018-04-18T22:32:15.105Z,16.40
2018-04-18T22:34:41.360Z,16.40
2018-04-18T22:37:07.615Z,16.30
2018-04-18T22:39:34.848Z,16.30
2018-04-18T22:42:01.910Z,16.30
2018-04-18T22:44:28.234Z,16.20
2018-04-18T22:46:55.371Z,16.20
2018-04-18T22:49:21.608Z,16.10
2018-04-18T22:51:47.831Z,16.10
2018-04-18T22:54:14.180Z,16.10
2018-04-18T22:56:40.381Z,16.00
2018-04-18T22:59:06.614Z,16.00
2018-04-18T23:01:32.853Z,16.00
2018-04-18T23:03:59.080Z,15.90
2018-04-18T23:06:25.296Z,15.90
2018-04-18T23:08:51.554Z,15.90
2018-04-18T23:11:17.781Z,15.80
2018-04-18T23:13:44.089Z,15.70
2018-04-18T23:16:10.295Z,15.70
2018-04-18T23:18:36.548Z,15.60
2018-04-18T23:21:02.801Z,15.60
2018-04-18T23:23:29.021Z,15.50
2018-04-18T23:25:55.259Z,15.50
2018-04-18T23:28:22.240Z,15.50
2018-04-18T23:30:48.484Z,15.50
2018-04-18T23:33:14.728Z,15.50
2018-04-18T23:35:41.025Z,15.50
2018-04-18T23:38:07.288Z,15.50
2018-04-18T23:40:33.512Z,15.40
2018-04-18T23:42:59.754Z,15.30
2018-04-18T23:45:25.985Z,15.40
2018-04-18T23:47:52.230Z,15.30
2018-04-18T23:50:18.448Z,15.30
2018-04-18T23:52:44.717Z,15.30
2018-04-18T23:55:11.688Z,15.20
2018-04-18T23:57:37.915Z,15.20
